sensor_id;sensor_type;location;lat;lon;timestamp;temperature;humidity
10282;DHT22;5186;59.472;18.048;2023-03-31T00:01:37;0.70;99.90
10282;DHT22;5186;59.472;18.048;2023-03-31T00:04:09;0.70;99.90
10282;DHT22;5186;59.472;18.048;2023-03-31T00:06:38;0.70;99.90
10282;DHT22;5186;59.472;18.048;2023-03-31T00:09:08;0.60;99.90
10282;DHT22;5186;59.472;18.048;2023-03-31T00:11:33;0.60;99.90
10282;DHT22;5186;59.472;18.048;2023-03-31T00:13:59;0.60;99.90
10282;DHT22;5186;59.472;18.048;2023-03-31T00:16:25;0.60;99.90
10282;DHT22;5186;59.472;18.048;2023-03-31T00:18:51;0.60;99.90
10282;DHT22;5186;59.472;18.048;2023-03-31T00:21:19;0.60;99.90
10282;DHT22;5186;59.472;18.048;2023-03-31T00:24:03;0.70;99.90
10282;DHT22;5186;59.472;18.048;2023-03-31T00:26:29;0.60;99.90
10282;DHT22;5186;59.472;18.048;2023-03-31T00:28:56;0.60;99.90
10282;DHT22;5186;59.472;18.048;2023-03-31T00:31:22;0.60;99.90
10282;DHT22;5186;59.472;18.048;2023-03-31T00:33:48;0.60;99.90
10282;DHT22;5186;59.472;18.048;2023-03-31T00:36:13;0.60;99.90
10282;DHT22;5186;59.472;18.048;2023-03-31T00:38:48;0.60;99.90
10282;DHT22;5186;59.472;18.048;2023-03-31T00:41:14;0.50;99.90
10282;DHT22;5186;59.472;18.048;2023-03-31T00:43:40;0.50;99.90
10282;DHT22;5186;59.472;18.048;2023-03-31T00:46:10;0.60;99.90
10282;DHT22;5186;59.472;18.048;2023-03-31T00:48:43;0.50;99.90
10282;DHT22;5186;59.472;18.048;2023-03-31T00:51:10;0.50;99.90
10282;DHT22;5186;59.472;18.048;2023-03-31T00:53:36;0.50;99.90
10282;DHT22;5186;59.472;18.048;2023-03-31T00:56:07;0.40;99.90
10282;DHT22;5186;59.472;18.048;2023-03-31T00:58:33;0.40;99.90
10282;DHT22;5186;59.472;18.048;2023-03-31T01:01:00;0.40;99.90
10282;DHT22;5186;59.472;18.048;2023-03-31T01:03:29;0.40;99.90
10282;DHT22;5186;59.472;18.048;2023-03-31T01:06:01;0.40;99.90
10282;DHT22;5186;59.472;18.048;2023-03-31T01:08:31;0.40;99.90
10282;DHT22;5186;59.472;18.048;2023-03-31T01:11:00;0.40;99.90
10282;DHT22;5186;59.472;18.048;2023-03-31T01:13:29;0.50;99.90
10282;DHT22;5186;59.472;18.048;2023-03-31T01:15:56;0.40;99.90
10282;DHT22;5186;59.472;18.048;2023-03-31T01:18:22;0.40;99.90
10282;DHT22;5186;59.472;18.048;2023-03-31T01:29:18;0.30;99.90
10282;DHT22;5186;59.472;18.048;2023-03-31T01:34:49;0.30;99.90
10282;DHT22;5186;59.472;18.048;2023-03-31T01:40:18;0.30;99.90
10282;DHT22;5186;59.472;18.048;2023-03-31T01:43:04;0.30;99.90
10282;DHT22;5186;59.472;18.048;2023-03-31T01:45:46;0.30;99.90
10282;DHT22;5186;59.472;18.048;2023-03-31T01:51:05;0.20;99.90
10282;DHT22;5186;59.472;18.048;2023-03-31T01:53:35;0.30;99.90
10282;DHT22;5186;59.472;18.048;2023-03-31T01:56:12;0.20;99.90
10282;DHT22;5186;59.472;18.048;2023-03-31T01:58:54;0.30;99.90
10282;DHT22;5186;59.472;18.048;2023-03-31T02:01:25;0.20;99.90
10282;DHT22;5186;59.472;18.048;2023-03-31T02:04:24;0.20;99.90
10282;DHT22;5186;59.472;18.048;2023-03-31T02:06:56;0.30;99.90
10282;DHT22;5186;59.472;18.048;2023-03-31T02:09:28;0.30;99.90
10282;DHT22;5186;59.472;18.048;2023-03-31T02:11:56;0.20;99.90
10282;DHT22;5186;59.472;18.048;2023-03-31T02:14:27;0.20;99.90
10282;DHT22;5186;59.472;18.048;2023-03-31T02:16:56;0.20;99.90
10282;DHT22;5186;59.472;18.048;2023-03-31T02:19:25;0.20;99.90
10282;DHT22;5186;59.472;18.048;2023-03-31T02:21:53;0.20;99.90
10282;DHT22;5186;59.472;18.048;2023-03-31T02:24:22;0.20;99.90
10282;DHT22;5186;59.472;18.048;2023-03-31T02:27:18;0.20;99.90
10282;DHT22;5186;59.472;18.048;2023-03-31T02:29:46;0.20;99.90
10282;DHT22;5186;59.472;18.048;2023-03-31T02:34:47;0.20;99.90
10282;DHT22;5186;59.472;18.048;2023-03-31T02:37:13;0.20;99.90
10282;DHT22;5186;59.472;18.048;2023-03-31T02:39:41;0.20;99.90
10282;DHT22;5186;59.472;18.048;2023-03-31T02:42:08;0.10;99.90
10282;DHT22;5186;59.472;18.048;2023-03-31T02:44:35;0.20;99.90
10282;DHT22;5186;59.472;18.048;2023-03-31T02:47:07;0.20;99.90
10282;DHT22;5186;59.472;18.048;2023-03-31T02:49:34;0.20;99.90
10282;DHT22;5186;59.472;18.048;2023-03-31T02:59:48;0.10;99.90
10282;DHT22;5186;59.472;18.048;2023-03-31T03:10:36;0.10;99.90
10282;DHT22;5186;59.472;18.048;2023-03-31T03:13:34;0.10;99.90
10282;DHT22;5186;59.472;18.048;2023-03-31T03:16:11;0.10;99.90
10282;DHT22;5186;59.472;18.048;2023-03-31T03:18:51;0.10;99.90
10282;DHT22;5186;59.472;18.048;2023-03-31T03:21:16;0.10;99.90
10282;DHT22;5186;59.472;18.048;2023-03-31T03:23:42;0.10;99.90
10282;DHT22;5186;59.472;18.048;2023-03-31T03:26:08;0.10;99.90
10282;DHT22;5186;59.472;18.048;2023-03-31T03:28:33;0.10;99.90
10282;DHT22;5186;59.472;18.048;2023-03-31T03:30:59;0.10;99.90
10282;DHT22;5186;59.472;18.048;2023-03-31T03:33:25;0.10;99.90
10282;DHT22;5186;59.472;18.048;2023-03-31T03:35:50;0.10;99.90
10282;DHT22;5186;59.472;18.048;2023-03-31T03:38:16;0.10;99.90
10282;DHT22;5186;59.472;18.048;2023-03-31T03:40:42;0.10;99.90
10282;DHT22;5186;59.472;18.048;2023-03-31T03:43:07;0.10;99.90
10282;DHT22;5186;59.472;18.048;2023-03-31T03:45:33;0.10;99.90
10282;DHT22;5186;59.472;18.048;2023-03-31T03:47:58;0.10;99.90
10282;DHT22;5186;59.472;18.048;2023-03-31T03:50:24;0.10;99.90
10282;DHT22;5186;59.472;18.048;2023-03-31T03:52:49;0.10;99.90
10282;DHT22;5186;59.472;18.048;2023-03-31T03:55:15;0.10;99.90
10282;DHT22;5186;59.472;18.048;2023-03-31T03:57:42;0.10;99.90
10282;DHT22;5186;59.472;18.048;2023-03-31T04:00:08;0.10;99.90
10282;DHT22;5186;59.472;18.048;2023-03-31T04:02:37;0.10;99.90
10282;DHT22;5186;59.472;18.048;2023-03-31T04:05:03;0.10;99.90
10282;DHT22;5186;59.472;18.048;2023-03-31T04:07:30;0.10;99.90
10282;DHT22;5186;59.472;18.048;2023-03-31T04:09:55;0.10;99.90
10282;DHT22;5186;59.472;18.048;2023-03-31T04:12:21;0.10;99.90
10282;DHT22;5186;59.472;18.048;2023-03-31T04:14:46;0.10;99.90
10282;DHT22;5186;59.472;18.048;2023-03-31T04:17:12;0.10;99.90
10282;DHT22;5186;59.472;18.048;2023-03-31T04:19:40;0.10;99.90
10282;DHT22;5186;59.472;18.048;2023-03-31T04:22:07;0.00;99.90
10282;DHT22;5186;59.472;18.048;2023-03-31T04:24:36;0.00;99.90
10282;DHT22;5186;59.472;18.048;2023-03-31T04:27:03;0.00;99.90
10282;DHT22;5186;59.472;18.048;2023-03-31T04:29:32;0.00;99.90
10282;DHT22;5186;59.472;18.048;2023-03-31T04:31:58;0.00;99.90
10282;DHT22;5186;59.472;18.048;2023-03-31T04:34:25;0.00;99.90
10282;DHT22;5186;59.472;18.048;2023-03-31T04:36:59;0.10;99.90
10282;DHT22;5186;59.472;18.048;2023-03-31T04:39:27;0.10;99.90
10282;DHT22;5186;59.472;18.048;2023-03-31T04:41:58;0.10;99.90
10282;DHT22;5186;59.472;18.048;2023-03-31T04:44:24;0.10;99.90
10282;DHT22;5186;59.472;18.048;2023-03-31T04:46:50;0.10;99.90
10282;DHT22;5186;59.472;18.048;2023-03-31T04:49:15;0.10;99.90
10282;DHT22;5186;59.472;18.048;2023-03-31T04:51:41;0.10;99.90
10282;DHT22;5186;59.472;18.048;2023-03-31T04:54:07;0.10;99.90
10282;DHT22;5186;59.472;18.048;2023-03-31T04:56:32;0.10;99.90
10282;DHT22;5186;59.472;18.048;2023-03-31T04:58:58;0.10;99.90
10282;DHT22;5186;59.472;18.048;2023-03-31T05:01:24;0.10;99.90
10282;DHT22;5186;59.472;18.048;2023-03-31T05:03:49;0.00;99.90
10282;DHT22;5186;59.472;18.048;2023-03-31T05:06:15;0.00;99.90
10282;DHT22;5186;59.472;18.048;2023-03-31T05:08:42;0.00;99.90
10282;DHT22;5186;59.472;18.048;2023-03-31T05:11:08;0.00;99.90
10282;DHT22;5186;59.472;18.048;2023-03-31T05:13:34;0.00;99.90
10282;DHT22;5186;59.472;18.048;2023-03-31T05:16:08;0.00;99.90
10282;DHT22;5186;59.472;18.048;2023-03-31T05:18:36;0.00;99.90
10282;DHT22;5186;59.472;18.048;2023-03-31T05:21:19;0.00;99.90
10282;DHT22;5186;59.472;18.048;2023-03-31T05:23:45;0.00;99.90
10282;DHT22;5186;59.472;18.048;2023-03-31T05:26:11;0.00;99.90
10282;DHT22;5186;59.472;18.048;2023-03-31T05:28:38;0.00;99.90
10282;DHT22;5186;59.472;18.048;2023-03-31T05:31:04;0.00;99.90
10282;DHT22;5186;59.472;18.048;2023-03-31T05:33:31;0.00;99.90
10282;DHT22;5186;59.472;18.048;2023-03-31T05:35:56;0.00;99.90
10282;DHT22;5186;59.472;18.048;2023-03-31T05:38:25;0.00;99.90
10282;DHT22;5186;59.472;18.048;2023-03-31T05:40:54;0.00;99.90
10282;DHT22;5186;59.472;18.048;2023-03-31T05:43:20;0.00;99.90
10282;DHT22;5186;59.472;18.048;2023-03-31T05:45:45;0.00;99.90
10282;DHT22;5186;59.472;18.048;2023-03-31T05:48:11;0.10;99.90
10282;DHT22;5186;59.472;18.048;2023-03-31T05:50:36;0.10;99.90
10282;DHT22;5186;59.472;18.048;2023-03-31T05:53:02;0.10;99.90
10282;DHT22;5186;59.472;18.048;2023-03-31T05:55:28;0.10;99.90
10282;DHT22;5186;59.472;18.048;2023-03-31T05:57:53;0.20;99.90
10282;DHT22;5186;59.472;18.048;2023-03-31T06:00:19;0.10;99.90
10282;DHT22;5186;59.472;18.048;2023-03-31T06:02:45;0.10;99.90
10282;DHT22;5186;59.472;18.048;2023-03-31T06:05:11;0.20;99.90
10282;DHT22;5186;59.472;18.048;2023-03-31T06:07:36;0.10;99.90
10282;DHT22;5186;59.472;18.048;2023-03-31T06:10:02;0.20;99.90
10282;DHT22;5186;59.472;18.048;2023-03-31T06:12:28;0.20;99.90
10282;DHT22;5186;59.472;18.048;2023-03-31T06:14:53;0.20;99.90
10282;DHT22;5186;59.472;18.048;2023-03-31T06:17:19;0.20;99.90
10282;DHT22;5186;59.472;18.048;2023-03-31T06:19:45;0.20;99.90
10282;DHT22;5186;59.472;18.048;2023-03-31T06:22:11;0.20;99.90
10282;DHT22;5186;59.472;18.048;2023-03-31T06:24:36;0.20;99.90
10282;DHT22;5186;59.472;18.048;2023-03-31T06:27:02;0.30;99.90
10282;DHT22;5186;59.472;18.048;2023-03-31T06:29:28;0.30;99.90
10282;DHT22;5186;59.472;18.048;2023-03-31T06:31:54;0.30;99.90
10282;DHT22;5186;59.472;18.048;2023-03-31T06:34:20;0.30;99.90
10282;DHT22;5186;59.472;18.048;2023-03-31T06:36:45;0.30;99.90
10282;DHT22;5186;59.472;18.048;2023-03-31T06:39:11;0.40;99.90
10282;DHT22;5186;59.472;18.048;2023-03-31T06:41:36;0.40;99.90
10282;DHT22;5186;59.472;18.048;2023-03-31T06:44:03;0.40;99.90
10282;DHT22;5186;59.472;18.048;2023-03-31T06:46:29;0.40;99.90
10282;DHT22;5186;59.472;18.048;2023-03-31T06:48:54;0.40;99.90
10282;DHT22;5186;59.472;18.048;2023-03-31T06:51:20;0.40;99.90
10282;DHT22;5186;59.472;18.048;2023-03-31T06:53:46;0.40;99.90
10282;DHT22;5186;59.472;18.048;2023-03-31T06:56:11;0.50;99.90
10282;DHT22;5186;59.472;18.048;2023-03-31T06:58:37;0.50;99.90
10282;DHT22;5186;59.472;18.048;2023-03-31T07:01:04;0.50;99.90
10282;DHT22;5186;59.472;18.048;2023-03-31T07:03:30;0.60;99.90
10282;DHT22;5186;59.472;18.048;2023-03-31T07:05:56;0.60;99.90
10282;DHT22;5186;59.472;18.048;2023-03-31T07:08:23;0.70;99.90
10282;DHT22;5186;59.472;18.048;2023-03-31T07:10:52;0.70;99.90
10282;DHT22;5186;59.472;18.048;2023-03-31T07:13:18;0.80;99.90
10282;DHT22;5186;59.472;18.048;2023-03-31T07:15:46;0.80;99.90
10282;DHT22;5186;59.472;18.048;2023-03-31T07:18:13;0.90;99.90
10282;DHT22;5186;59.472;18.048;2023-03-31T07:20:40;0.90;99.90
10282;DHT22;5186;59.472;18.048;2023-03-31T07:23:06;0.90;99.90
10282;DHT22;5186;59.472;18.048;2023-03-31T07:25:33;1.00;99.90
10282;DHT22;5186;59.472;18.048;2023-03-31T07:27:59;1.10;99.90
10282;DHT22;5186;59.472;18.048;2023-03-31T07:30:24;1.00;99.90
10282;DHT22;5186;59.472;18.048;2023-03-31T07:32:51;1.00;99.90
10282;DHT22;5186;59.472;18.048;2023-03-31T07:35:18;1.10;99.90
10282;DHT22;5186;59.472;18.048;2023-03-31T07:37:45;1.20;99.90
10282;DHT22;5186;59.472;18.048;2023-03-31T07:40:17;1.30;99.90
10282;DHT22;5186;59.472;18.048;2023-03-31T07:42:43;1.30;99.90
10282;DHT22;5186;59.472;18.048;2023-03-31T07:45:11;1.40;99.90
10282;DHT22;5186;59.472;18.048;2023-03-31T07:47:37;1.50;99.90
10282;DHT22;5186;59.472;18.048;2023-03-31T07:50:05;1.50;99.90
10282;DHT22;5186;59.472;18.048;2023-03-31T07:52:30;1.60;99.90
10282;DHT22;5186;59.472;18.048;2023-03-31T07:54:56;1.60;99.90
10282;DHT22;5186;59.472;18.048;2023-03-31T07:57:22;1.60;99.90
10282;DHT22;5186;59.472;18.048;2023-03-31T07:59:47;1.70;99.90
10282;DHT22;5186;59.472;18.048;2023-03-31T08:02:14;1.80;99.90
10282;DHT22;5186;59.472;18.048;2023-03-31T08:04:41;1.80;99.90
10282;DHT22;5186;59.472;18.048;2023-03-31T08:07:08;1.70;99.90
10282;DHT22;5186;59.472;18.048;2023-03-31T08:09:33;1.70;99.90
10282;DHT22;5186;59.472;18.048;2023-03-31T08:11:59;1.70;99.90
10282;DHT22;5186;59.472;18.048;2023-03-31T08:14:25;1.70;99.90
10282;DHT22;5186;59.472;18.048;2023-03-31T08:16:50;1.70;99.90
10282;DHT22;5186;59.472;18.048;2023-03-31T08:19:17;1.70;99.90
10282;DHT22;5186;59.472;18.048;2023-03-31T08:21:43;1.80;99.90
10282;DHT22;5186;59.472;18.048;2023-03-31T08:24:08;1.80;99.90
10282;DHT22;5186;59.472;18.048;2023-03-31T08:26:34;1.80;99.90
10282;DHT22;5186;59.472;18.048;2023-03-31T08:29:00;1.80;99.90
10282;DHT22;5186;59.472;18.048;2023-03-31T08:31:25;1.90;99.90
10282;DHT22;5186;59.472;18.048;2023-03-31T08:33:53;1.90;99.90
10282;DHT22;5186;59.472;18.048;2023-03-31T08:36:19;1.80;99.90
10282;DHT22;5186;59.472;18.048;2023-03-31T08:38:45;1.90;99.90
10282;DHT22;5186;59.472;18.048;2023-03-31T08:44:18;1.90;99.90
10282;DHT22;5186;59.472;18.048;2023-03-31T08:46:45;1.80;99.90
10282;DHT22;5186;59.472;18.048;2023-03-31T08:49:17;1.80;99.90
10282;DHT22;5186;59.472;18.048;2023-03-31T08:51:48;1.70;99.90
10282;DHT22;5186;59.472;18.048;2023-03-31T08:54:29;1.70;99.90
10282;DHT22;5186;59.472;18.048;2023-03-31T08:56:56;1.80;99.90
10282;DHT22;5186;59.472;18.048;2023-03-31T08:59:33;1.80;99.90
10282;DHT22;5186;59.472;18.048;2023-03-31T09:02:09;1.80;99.90
10282;DHT22;5186;59.472;18.048;2023-03-31T09:12:45;2.00;99.90
10282;DHT22;5186;59.472;18.048;2023-03-31T09:15:35;2.00;99.90
10282;DHT22;5186;59.472;18.048;2023-03-31T09:20:49;2.00;99.90
10282;DHT22;5186;59.472;18.048;2023-03-31T09:23:26;1.90;99.90
10282;DHT22;5186;59.472;18.048;2023-03-31T09:25:52;1.90;99.90
10282;DHT22;5186;59.472;18.048;2023-03-31T09:28:22;1.90;99.90
10282;DHT22;5186;59.472;18.048;2023-03-31T09:30:49;1.90;99.90
10282;DHT22;5186;59.472;18.048;2023-03-31T09:33:29;1.90;99.90
10282;DHT22;5186;59.472;18.048;2023-03-31T09:36:01;1.90;99.90
10282;DHT22;5186;59.472;18.048;2023-03-31T09:38:27;1.90;99.90
10282;DHT22;5186;59.472;18.048;2023-03-31T09:40:58;2.00;99.90
10282;DHT22;5186;59.472;18.048;2023-03-31T09:43:28;2.00;99.90
10282;DHT22;5186;59.472;18.048;2023-03-31T09:45:55;2.00;99.90
10282;DHT22;5186;59.472;18.048;2023-03-31T09:48:26;2.00;99.90
10282;DHT22;5186;59.472;18.048;2023-03-31T09:50:59;2.00;99.90
10282;DHT22;5186;59.472;18.048;2023-03-31T09:53:38;1.90;99.90
10282;DHT22;5186;59.472;18.048;2023-03-31T09:56:06;1.90;99.90
10282;DHT22;5186;59.472;18.048;2023-03-31T09:58:43;2.00;99.90
10282;DHT22;5186;59.472;18.048;2023-03-31T10:01:13;2.00;99.90
10282;DHT22;5186;59.472;18.048;2023-03-31T10:03:51;2.00;99.90
10282;DHT22;5186;59.472;18.048;2023-03-31T10:06:18;2.00;99.90
10282;DHT22;5186;59.472;18.048;2023-03-31T10:09:01;2.00;99.90
10282;DHT22;5186;59.472;18.048;2023-03-31T10:11:28;2.00;99.90
10282;DHT22;5186;59.472;18.048;2023-03-31T10:14:09;2.00;99.90
10282;DHT22;5186;59.472;18.048;2023-03-31T10:19:25;2.00;99.90
10282;DHT22;5186;59.472;18.048;2023-03-31T10:21:56;2.00;99.90
10282;DHT22;5186;59.472;18.048;2023-03-31T10:24:23;2.10;99.90
10282;DHT22;5186;59.472;18.048;2023-03-31T10:26:51;2.00;99.90
10282;DHT22;5186;59.472;18.048;2023-03-31T10:29:21;2.00;99.90
10282;DHT22;5186;59.472;18.048;2023-03-31T10:31:50;2.00;99.90
10282;DHT22;5186;59.472;18.048;2023-03-31T10:34:16;2.00;99.90
10282;DHT22;5186;59.472;18.048;2023-03-31T10:36:48;2.00;99.90
10282;DHT22;5186;59.472;18.048;2023-03-31T10:39:17;2.00;99.90
10282;DHT22;5186;59.472;18.048;2023-03-31T10:41:49;2.10;99.90
10282;DHT22;5186;59.472;18.048;2023-03-31T10:44:34;2.20;99.90
10282;DHT22;5186;59.472;18.048;2023-03-31T10:47:17;2.20;99.90
10282;DHT22;5186;59.472;18.048;2023-03-31T10:49:44;2.20;99.90
10282;DHT22;5186;59.472;18.048;2023-03-31T10:52:23;2.20;99.90
10282;DHT22;5186;59.472;18.048;2023-03-31T10:54:59;2.30;99.90
10282;DHT22;5186;59.472;18.048;2023-03-31T11:05:30;2.30;99.90
10282;DHT22;5186;59.472;18.048;2023-03-31T11:08:24;2.30;99.90
10282;DHT22;5186;59.472;18.048;2023-03-31T11:13:51;2.40;99.90
10282;DHT22;5186;59.472;18.048;2023-03-31T11:41:03;2.40;99.90
10282;DHT22;5186;59.472;18.048;2023-03-31T11:43:43;2.50;99.90
10282;DHT22;5186;59.472;18.048;2023-03-31T11:46:48;2.50;99.90
10282;DHT22;5186;59.472;18.048;2023-03-31T11:49:25;2.50;99.90
10282;DHT22;5186;59.472;18.048;2023-03-31T11:52:14;2.50;99.90
10282;DHT22;5186;59.472;18.048;2023-03-31T11:55:04;2.50;99.90
10282;DHT22;5186;59.472;18.048;2023-03-31T11:57:57;2.50;99.90
10282;DHT22;5186;59.472;18.048;2023-03-31T12:00:19;2.50;99.90
10282;DHT22;5186;59.472;18.048;2023-03-31T12:02:52;2.50;99.90
10282;DHT22;5186;59.472;18.048;2023-03-31T12:05:21;2.50;99.90
10282;DHT22;5186;59.472;18.048;2023-03-31T12:10:49;2.60;99.90
10282;DHT22;5186;59.472;18.048;2023-03-31T12:16:16;2.60;99.90
10282;DHT22;5186;59.472;18.048;2023-03-31T12:19:10;2.60;99.90
10282;DHT22;5186;59.472;18.048;2023-03-31T12:21:40;2.60;99.90
10282;DHT22;5186;59.472;18.048;2023-03-31T12:24:11;2.60;99.90
10282;DHT22;5186;59.472;18.048;2023-03-31T12:26:49;2.60;99.90
10282;DHT22;5186;59.472;18.048;2023-03-31T12:29:33;2.60;99.90
10282;DHT22;5186;59.472;18.048;2023-03-31T12:32:04;2.70;99.90
10282;DHT22;5186;59.472;18.048;2023-03-31T12:34:31;2.70;99.90
10282;DHT22;5186;59.472;18.048;2023-03-31T12:45:10;2.70;99.90
10282;DHT22;5186;59.472;18.048;2023-03-31T12:50:40;2.80;99.90
10282;DHT22;5186;59.472;18.048;2023-03-31T12:53:30;2.80;99.90
10282;DHT22;5186;59.472;18.048;2023-03-31T12:55:58;2.70;99.90
10282;DHT22;5186;59.472;18.048;2023-03-31T13:01:16;2.70;99.90
10282;DHT22;5186;59.472;18.048;2023-03-31T13:04:08;2.70;99.90
10282;DHT22;5186;59.472;18.048;2023-03-31T13:09:37;2.60;99.90
10282;DHT22;5186;59.472;18.048;2023-03-31T13:11:51;2.70;99.90
10282;DHT22;5186;59.472;18.048;2023-03-31T13:14:35;2.70;99.90
10282;DHT22;5186;59.472;18.048;2023-03-31T13:17:24;2.60;99.90
10282;DHT22;5186;59.472;18.048;2023-03-31T13:19:51;2.70;99.90
10282;DHT22;5186;59.472;18.048;2023-03-31T13:22:36;2.70;99.90
10282;DHT22;5186;59.472;18.048;2023-03-31T13:27:56;2.70;99.90
10282;DHT22;5186;59.472;18.048;2023-03-31T13:33:07;2.70;99.90
10282;DHT22;5186;59.472;18.048;2023-03-31T13:35:37;2.70;99.90
10282;DHT22;5186;59.472;18.048;2023-03-31T13:41:13;2.70;99.90
10282;DHT22;5186;59.472;18.048;2023-03-31T13:43:57;2.60;99.90
10282;DHT22;5186;59.472;18.048;2023-03-31T13:46:55;2.60;99.90
10282;DHT22;5186;59.472;18.048;2023-03-31T13:49:46;2.60;99.90
10282;DHT22;5186;59.472;18.048;2023-03-31T13:55:17;2.70;99.90
10282;DHT22;5186;59.472;18.048;2023-03-31T14:00:55;2.80;99.90
10282;DHT22;5186;59.472;18.048;2023-03-31T14:07:09;2.80;99.90
10282;DHT22;5186;59.472;18.048;2023-03-31T14:09:26;2.80;99.90
10282;DHT22;5186;59.472;18.048;2023-03-31T14:11:53;2.80;99.90
10282;DHT22;5186;59.472;18.048;2023-03-31T14:14:20;2.80;99.90
10282;DHT22;5186;59.472;18.048;2023-03-31T14:16:51;2.80;99.90
10282;DHT22;5186;59.472;18.048;2023-03-31T14:22:25;2.80;99.90
10282;DHT22;5186;59.472;18.048;2023-03-31T14:24:56;2.80;99.90
10282;DHT22;5186;59.472;18.048;2023-03-31T14:30:26;2.90;99.90
10282;DHT22;5186;59.472;18.048;2023-03-31T14:33:23;3.00;99.90
10282;DHT22;5186;59.472;18.048;2023-03-31T14:38:35;2.90;99.90
10282;DHT22;5186;59.472;18.048;2023-03-31T14:41:01;3.00;99.90
10282;DHT22;5186;59.472;18.048;2023-03-31T14:43:31;2.90;99.90
10282;DHT22;5186;59.472;18.048;2023-03-31T14:46:06;2.90;99.90
10282;DHT22;5186;59.472;18.048;2023-03-31T14:48:35;2.90;99.90
10282;DHT22;5186;59.472;18.048;2023-03-31T14:51:08;2.90;99.90
10282;DHT22;5186;59.472;18.048;2023-03-31T14:53:35;2.90;99.90
10282;DHT22;5186;59.472;18.048;2023-03-31T14:56:07;2.80;99.90
10282;DHT22;5186;59.472;18.048;2023-03-31T14:58:38;2.80;99.90
10282;DHT22;5186;59.472;18.048;2023-03-31T15:01:06;2.80;99.90
10282;DHT22;5186;59.472;18.048;2023-03-31T15:03:34;2.80;99.90
10282;DHT22;5186;59.472;18.048;2023-03-31T15:06:02;2.80;99.90
10282;DHT22;5186;59.472;18.048;2023-03-31T15:08:29;2.80;99.90
10282;DHT22;5186;59.472;18.048;2023-03-31T15:10:58;2.80;99.90
10282;DHT22;5186;59.472;18.048;2023-03-31T15:13:43;2.80;99.90
10282;DHT22;5186;59.472;18.048;2023-03-31T15:21:44;2.80;99.90
10282;DHT22;5186;59.472;18.048;2023-03-31T15:24:13;2.80;99.90
10282;DHT22;5186;59.472;18.048;2023-03-31T15:27:12;2.80;99.90
10282;DHT22;5186;59.472;18.048;2023-03-31T15:29:46;2.90;99.90
10282;DHT22;5186;59.472;18.048;2023-03-31T15:32:16;2.80;99.90
10282;DHT22;5186;59.472;18.048;2023-03-31T15:34:44;2.80;99.90
10282;DHT22;5186;59.472;18.048;2023-03-31T15:37:11;2.80;99.90
10282;DHT22;5186;59.472;18.048;2023-03-31T15:39:37;2.80;99.90
10282;DHT22;5186;59.472;18.048;2023-03-31T15:42:05;2.80;99.90
10282;DHT22;5186;59.472;18.048;2023-03-31T15:44:47;2.80;99.90
10282;DHT22;5186;59.472;18.048;2023-03-31T15:47:22;2.70;99.90
10282;DHT22;5186;59.472;18.048;2023-03-31T15:50:21;2.70;99.90
10282;DHT22;5186;59.472;18.048;2023-03-31T15:52:51;2.70;99.90
10282;DHT22;5186;59.472;18.048;2023-03-31T15:57:52;2.60;99.90
10282;DHT22;5186;59.472;18.048;2023-03-31T16:03:10;2.60;99.90
10282;DHT22;5186;59.472;18.048;2023-03-31T16:05:47;2.60;99.90
10282;DHT22;5186;59.472;18.048;2023-03-31T16:08:29;2.60;99.90
10282;DHT22;5186;59.472;18.048;2023-03-31T16:11:18;2.50;99.90
10282;DHT22;5186;59.472;18.048;2023-03-31T16:13:49;2.40;99.90
10282;DHT22;5186;59.472;18.048;2023-03-31T16:16:17;2.50;99.90
10282;DHT22;5186;59.472;18.048;2023-03-31T16:18:54;2.40;99.90
10282;DHT22;5186;59.472;18.048;2023-03-31T16:21:27;2.40;99.90
10282;DHT22;5186;59.472;18.048;2023-03-31T16:23:56;2.30;99.90
10282;DHT22;5186;59.472;18.048;2023-03-31T16:26:24;2.30;99.90
10282;DHT22;5186;59.472;18.048;2023-03-31T16:28:51;2.30;99.90
10282;DHT22;5186;59.472;18.048;2023-03-31T16:31:39;2.20;99.90
10282;DHT22;5186;59.472;18.048;2023-03-31T16:34:07;2.20;99.90
10282;DHT22;5186;59.472;18.048;2023-03-31T16:36:34;2.10;99.90
10282;DHT22;5186;59.472;18.048;2023-03-31T16:39:00;2.10;99.90
10282;DHT22;5186;59.472;18.048;2023-03-31T16:41:32;2.10;99.90
10282;DHT22;5186;59.472;18.048;2023-03-31T16:43:58;2.00;99.90
10282;DHT22;5186;59.472;18.048;2023-03-31T16:46:24;2.00;99.90
10282;DHT22;5186;59.472;18.048;2023-03-31T16:48:50;2.00;99.90
10282;DHT22;5186;59.472;18.048;2023-03-31T16:51:16;1.90;99.90
10282;DHT22;5186;59.472;18.048;2023-03-31T16:53:42;1.90;99.90
10282;DHT22;5186;59.472;18.048;2023-03-31T16:56:09;1.90;99.90
10282;DHT22;5186;59.472;18.048;2023-03-31T16:58:37;1.70;99.90
10282;DHT22;5186;59.472;18.048;2023-03-31T17:01:04;1.70;99.90
10282;DHT22;5186;59.472;18.048;2023-03-31T17:03:31;1.60;99.90
10282;DHT22;5186;59.472;18.048;2023-03-31T17:05:57;1.60;99.90
10282;DHT22;5186;59.472;18.048;2023-03-31T17:08:24;1.50;99.90
10282;DHT22;5186;59.472;18.048;2023-03-31T17:10:54;1.40;99.90
10282;DHT22;5186;59.472;18.048;2023-03-31T17:13:21;1.40;99.90
10282;DHT22;5186;59.472;18.048;2023-03-31T17:15:47;1.40;99.90
10282;DHT22;5186;59.472;18.048;2023-03-31T17:18:14;1.30;99.90
10282;DHT22;5186;59.472;18.048;2023-03-31T17:20:40;1.30;99.90
10282;DHT22;5186;59.472;18.048;2023-03-31T17:23:05;1.20;99.90
10282;DHT22;5186;59.472;18.048;2023-03-31T17:25:32;1.20;99.90
10282;DHT22;5186;59.472;18.048;2023-03-31T17:27:58;1.20;99.90
10282;DHT22;5186;59.472;18.048;2023-03-31T17:30:25;1.20;99.90
10282;DHT22;5186;59.472;18.048;2023-03-31T17:32:51;1.10;99.90
10282;DHT22;5186;59.472;18.048;2023-03-31T17:35:17;1.10;99.90
10282;DHT22;5186;59.472;18.048;2023-03-31T17:37:49;1.00;99.90
10282;DHT22;5186;59.472;18.048;2023-03-31T17:40:21;1.00;99.90
10282;DHT22;5186;59.472;18.048;2023-03-31T17:42:47;1.00;99.90
10282;DHT22;5186;59.472;18.048;2023-03-31T17:45:13;0.90;99.90
10282;DHT22;5186;59.472;18.048;2023-03-31T17:47:39;0.90;99.90
10282;DHT22;5186;59.472;18.048;2023-03-31T17:50:06;0.80;99.90
10282;DHT22;5186;59.472;18.048;2023-03-31T17:52:33;0.80;99.90
10282;DHT22;5186;59.472;18.048;2023-03-31T17:55:00;0.80;99.90
10282;DHT22;5186;59.472;18.048;2023-03-31T17:57:26;0.80;99.90
10282;DHT22;5186;59.472;18.048;2023-03-31T17:59:51;0.80;99.90
10282;DHT22;5186;59.472;18.048;2023-03-31T18:02:17;0.70;99.90
10282;DHT22;5186;59.472;18.048;2023-03-31T18:04:43;0.70;99.90
10282;DHT22;5186;59.472;18.048;2023-03-31T18:07:09;0.70;99.90
10282;DHT22;5186;59.472;18.048;2023-03-31T18:09:35;0.60;99.90
10282;DHT22;5186;59.472;18.048;2023-03-31T18:12:01;0.60;99.90
10282;DHT22;5186;59.472;18.048;2023-03-31T18:14:27;0.50;99.90
10282;DHT22;5186;59.472;18.048;2023-03-31T18:16:53;0.50;99.90
10282;DHT22;5186;59.472;18.048;2023-03-31T18:19:18;0.40;99.90
10282;DHT22;5186;59.472;18.048;2023-03-31T18:21:44;0.40;99.90
10282;DHT22;5186;59.472;18.048;2023-03-31T18:24:10;0.50;99.90
10282;DHT22;5186;59.472;18.048;2023-03-31T18:26:35;0.40;99.90
10282;DHT22;5186;59.472;18.048;2023-03-31T18:29:01;0.40;99.90
10282;DHT22;5186;59.472;18.048;2023-03-31T18:31:27;0.40;99.90